Аэропорт: Якутск. Якутск

ICAO: UEEE

METAR:
2021-01-20 03:30:00
UEEE 200330Z 00000MPS 1500 R23L/1500N BR NSC M46/M51 Q1017 R23L/450150 NOSIG RMK QFE754
METAR:
2021-01-20 02:00:00
TAF UEEE 200200Z 2003/2109 VRB01MPS 0700 FG NSC TXM46/2005Z TNM49/2024Z TEMPO 2003/2009 0300 FG VV002